createdAt,value
2023-05-22T00:01:34.573Z,12.43
2023-05-22T00:05:37.606Z,12.36
2023-05-22T00:09:39.069Z,12.35
2023-05-22T00:13:40.670Z,12.30
2023-05-22T00:17:42.326Z,12.25
2023-05-22T00:21:45.522Z,12.18
2023-05-22T00:25:46.905Z,12.16
2023-05-22T00:29:48.449Z,12.07
2023-05-22T00:33:50.151Z,11.99
2023-05-22T00:37:53.183Z,11.98
2023-05-22T00:41:54.746Z,11.96
2023-05-22T00:45:56.894Z,12.02
2023-05-22T00:49:59.091Z,11.98
2023-05-22T00:54:02.053Z,11.91
2023-05-22T00:58:06.073Z,11.78
2023-05-22T01:02:07.930Z,11.67
2023-05-22T01:06:09.567Z,11.60
2023-05-22T01:10:12.653Z,11.61
2023-05-22T01:14:17.626Z,11.49
2023-05-22T01:18:27.499Z,11.52
2023-05-22T01:23:00.102Z,11.51
2023-05-22T01:27:27.055Z,11.45
2023-05-22T01:31:31.715Z,11.41
2023-05-22T01:35:35.065Z,11.37
2023-05-22T01:39:37.333Z,11.30
2023-05-22T01:43:39.469Z,11.23
2023-05-22T01:47:42.421Z,11.17
2023-05-22T01:51:52.421Z,11.12
2023-05-22T01:56:01.291Z,11.09
2023-05-22T02:00:07.391Z,10.98
2023-05-22T02:04:11.207Z,10.96
2023-05-22T02:08:14.296Z,10.90
2023-05-22T02:12:15.827Z,10.83
2023-05-22T02:16:17.950Z,10.84
2023-05-22T02:20:21.017Z,10.84
2023-05-22T02:24:22.584Z,10.79
2023-05-22T02:28:24.177Z,10.84
2023-05-22T02:32:25.813Z,10.81
2023-05-22T02:36:28.713Z,10.72
2023-05-22T02:40:30.308Z,10.65
2023-05-22T02:44:31.854Z,10.53
2023-05-22T02:48:33.448Z,10.53
2023-05-22T02:52:36.361Z,10.50
2023-05-22T02:56:37.901Z,10.46
2023-05-22T03:00:39.732Z,10.37
2023-05-22T03:04:41.425Z,10.28
2023-05-22T03:08:44.326Z,10.23
2023-05-22T03:12:45.856Z,10.23
2023-05-22T03:16:47.587Z,10.23
2023-05-22T03:20:49.198Z,10.17
2023-05-22T03:24:52.079Z,10.12
2023-05-22T03:28:53.705Z,10.18
2023-05-22T03:32:55.345Z,10.17
2023-05-22T03:36:56.911Z,10.14
2023-05-22T03:40:59.786Z,10.23
2023-05-22T03:45:01.339Z,10.09
2023-05-22T03:49:02.946Z,10.16
2023-05-22T03:53:04.538Z,10.23
2023-05-22T03:57:07.499Z,10.25
2023-05-22T04:01:09.072Z,10.28
2023-05-22T04:05:10.728Z,10.34
2023-05-22T04:09:12.955Z,10.40
2023-05-22T04:13:16.868Z,10.42
2023-05-22T04:17:18.419Z,10.44
2023-05-22T04:21:19.990Z,10.56
2023-05-22T04:25:21.723Z,10.59
2023-05-22T04:29:24.655Z,10.67
2023-05-22T04:33:26.217Z,10.70
2023-05-22T04:37:27.829Z,10.79
2023-05-22T04:41:29.427Z,11.10
2023-05-22T04:45:32.327Z,11.18
2023-05-22T04:49:33.883Z,11.75
2023-05-22T04:53:35.539Z,12.07
2023-05-22T04:57:37.096Z,11.75
2023-05-22T05:01:40.174Z,11.84
2023-05-22T05:05:41.721Z,11.86
2023-05-22T05:09:43.290Z,12.04
2023-05-22T05:13:44.847Z,13.02
2023-05-22T05:17:47.778Z,15.24
2023-05-22T05:21:49.715Z,16.51
2023-05-22T05:25:51.276Z,19.38
2023-05-22T05:29:52.817Z,21.11
2023-05-22T05:33:55.731Z,21.49
2023-05-22T05:37:57.137Z,20.83
2023-05-22T05:41:59.066Z,22.23
2023-05-22T05:46:00.737Z,23.34
2023-05-22T05:50:04.121Z,24.25
2023-05-22T05:54:05.934Z,24.77
2023-05-22T05:58:07.488Z,25.97
2023-05-22T06:02:09.884Z,25.41
2023-05-22T06:06:12.838Z,25.13
2023-05-22T06:10:14.528Z,25.41
2023-05-22T06:14:16.096Z,26.62
2023-05-22T06:18:17.652Z,25.41
2023-05-22T06:22:20.540Z,27.05
2023-05-22T06:26:23.076Z,26.99
2023-05-22T06:30:38.988Z,27.53
2023-05-22T06:34:42.361Z,27.74
2023-05-22T06:38:45.261Z,25.04
2023-05-22T06:42:46.804Z,27.62
2023-05-22T06:46:48.385Z,28.59
2023-05-22T06:50:49.971Z,28.36
2023-05-22T06:54:52.904Z,28.84
2023-05-22T06:58:54.587Z,27.04
2023-05-22T07:02:56.199Z,27.44
2023-05-22T07:06:57.751Z,29.65
2023-05-22T07:11:00.652Z,29.03
2023-05-22T07:15:02.269Z,30.00
2023-05-22T07:19:03.899Z,28.85
2023-05-22T07:23:05.558Z,28.37
2023-05-22T07:27:08.590Z,29.68
2023-05-22T07:31:10.212Z,29.48
2023-05-22T07:35:11.769Z,29.08
2023-05-22T07:39:13.339Z,29.87
2023-05-22T07:43:16.227Z,29.19
2023-05-22T07:47:17.813Z,27.71
2023-05-22T07:51:19.352Z,30.40
2023-05-22T07:55:20.924Z,29.98
2023-05-22T07:59:23.832Z,27.26
2023-05-22T08:03:25.527Z,27.04
2023-05-22T08:07:27.176Z,26.94
2023-05-22T08:11:28.773Z,28.37
2023-05-22T08:15:31.664Z,28.13
2023-05-22T08:19:33.424Z,27.59
2023-05-22T08:23:35.057Z,28.19
2023-05-22T08:27:36.624Z,29.96
2023-05-22T08:31:39.573Z,30.58
2023-05-22T08:35:41.186Z,30.56
2023-05-22T08:39:42.745Z,30.08
2023-05-22T08:43:44.304Z,31.00
2023-05-22T08:47:52.203Z,28.93
2023-05-22T08:51:59.592Z,28.29
2023-05-22T08:56:02.347Z,28.87
2023-05-22T09:00:04.643Z,27.31
2023-05-22T09:04:07.900Z,28.66
2023-05-22T09:08:19.638Z,27.49
2023-05-22T09:12:22.084Z,26.95
2023-05-22T09:16:23.724Z,27.48
2023-05-22T09:20:26.701Z,27.52
2023-05-22T09:24:28.243Z,26.37
2023-05-22T09:28:32.830Z,27.26
2023-05-22T09:32:34.469Z,26.63
2023-05-22T09:36:37.409Z,26.97
2023-05-22T09:40:39.786Z,26.34
2023-05-22T09:44:41.762Z,26.65
2023-05-22T09:48:43.315Z,26.63
2023-05-22T09:52:48.058Z,26.75
2023-05-22T09:56:50.425Z,26.80
2023-05-22T10:00:52.280Z,26.69
2023-05-22T10:04:54.472Z,26.47
2023-05-22T10:09:02.806Z,26.30
2023-05-22T10:13:05.359Z,26.48
2023-05-22T10:17:06.880Z,26.98
2023-05-22T10:21:08.560Z,26.55
2023-05-22T10:25:11.525Z,26.40
2023-05-22T10:29:20.825Z,26.47
2023-05-22T10:33:25.666Z,26.24
2023-05-22T10:37:47.140Z,26.15
2023-05-22T10:41:50.239Z,26.35
2023-05-22T10:46:02.519Z,26.50
2023-05-22T10:50:07.782Z,26.63
2023-05-22T10:54:09.324Z,26.69
2023-05-22T10:58:14.174Z,26.31
2023-05-22T11:02:20.304Z,26.15
2023-05-22T11:06:32.285Z,26.76
2023-05-22T11:10:51.896Z,26.87
2023-05-22T11:14:56.982Z,26.29
2023-05-22T11:19:18.627Z,25.91
2023-05-22T11:23:25.326Z,26.42
2023-05-22T11:27:27.337Z,26.52
2023-05-22T11:31:30.896Z,25.98
2023-05-22T11:35:32.512Z,25.63
2023-05-22T11:39:34.077Z,25.67
2023-05-22T11:43:35.679Z,26.18
2023-05-22T11:47:39.391Z,26.17
2023-05-22T11:51:41.034Z,26.51
2023-05-22T11:55:42.839Z,26.56
2023-05-22T11:59:44.979Z,26.43
2023-05-22T12:03:47.947Z,26.57
2023-05-22T12:07:49.800Z,26.68
2023-05-22T12:11:51.392Z,26.96
2023-05-22T12:15:54.260Z,26.57
2023-05-22T12:19:57.624Z,26.91
2023-05-22T12:24:03.528Z,26.93
2023-05-22T12:28:06.887Z,26.97
2023-05-22T12:32:10.069Z,27.08
2023-05-22T12:36:13.098Z,27.03
2023-05-22T12:40:14.867Z,26.87
2023-05-22T12:44:16.639Z,27.06
2023-05-22T12:48:18.270Z,27.12
2023-05-22T12:52:21.196Z,27.08
2023-05-22T12:56:22.768Z,27.29
2023-05-22T13:00:24.437Z,27.48
2023-05-22T13:04:26.093Z,26.68
2023-05-22T13:08:28.980Z,27.33
2023-05-22T13:12:30.609Z,27.42
2023-05-22T13:16:32.256Z,27.01
2023-05-22T13:20:34.159Z,27.06
2023-05-22T13:24:37.097Z,27.17
2023-05-22T13:28:38.649Z,27.33
2023-05-22T13:32:40.308Z,27.66
2023-05-22T13:36:41.901Z,27.55
2023-05-22T13:40:46.927Z,27.55
2023-05-22T13:44:49.965Z,27.72
2023-05-22T13:48:51.566Z,26.63
2023-05-22T13:52:53.145Z,27.20
2023-05-22T13:56:56.067Z,26.96
2023-05-22T14:00:57.660Z,27.00
2023-05-22T14:04:59.237Z,27.34
2023-05-22T14:09:00.820Z,27.54
2023-05-22T14:13:03.886Z,26.63
2023-05-22T14:17:07.664Z,27.06
2023-05-22T14:21:09.412Z,27.07
2023-05-22T14:25:10.986Z,27.57
2023-05-22T14:29:13.866Z,27.42
2023-05-22T14:33:15.424Z,27.63
2023-05-22T14:37:16.948Z,27.93
2023-05-22T14:41:18.483Z,27.85
2023-05-22T14:45:21.642Z,27.62
2023-05-22T14:49:23.214Z,27.66
2023-05-22T14:53:24.921Z,27.73
2023-05-22T14:57:26.491Z,27.79
2023-05-22T15:01:29.446Z,27.54
2023-05-22T15:05:31.004Z,27.70
2023-05-22T15:09:32.628Z,27.59
2023-05-22T15:13:34.197Z,27.80
2023-05-22T15:17:37.231Z,27.85
2023-05-22T15:21:38.818Z,28.00
2023-05-22T15:25:40.606Z,28.22
2023-05-22T15:29:42.282Z,28.12
2023-05-22T15:33:45.208Z,27.68
2023-05-22T15:37:46.737Z,27.43
2023-05-22T15:42:02.450Z,27.73
2023-05-22T15:46:08.894Z,27.80
2023-05-22T15:50:11.910Z,27.52
2023-05-22T15:54:13.457Z,27.38
2023-05-22T15:58:15.091Z,27.41
2023-05-22T16:02:18.538Z,27.69
2023-05-22T16:06:21.521Z,27.46
2023-05-22T16:10:23.068Z,27.35
2023-05-22T16:14:24.610Z,27.35
2023-05-22T16:18:26.183Z,27.29
2023-05-22T16:22:40.037Z,27.12
2023-05-22T16:26:48.569Z,27.12
2023-05-22T16:30:50.095Z,26.94
2023-05-22T16:34:51.624Z,26.79
2023-05-22T16:38:54.596Z,26.75
2023-05-22T16:42:56.307Z,26.65
2023-05-22T16:46:57.877Z,26.61
2023-05-22T16:50:59.481Z,26.98
2023-05-22T16:55:02.409Z,26.55
2023-05-22T16:59:03.936Z,25.82
2023-05-22T17:03:05.754Z,25.00
2023-05-22T17:07:07.509Z,25.80
2023-05-22T17:11:10.384Z,25.16
2023-05-22T17:15:12.220Z,25.52
2023-05-22T17:19:13.819Z,25.65
2023-05-22T17:23:15.703Z,24.85
2023-05-22T17:27:32.003Z,25.58
2023-05-22T17:31:39.083Z,24.81
2023-05-22T17:35:41.221Z,25.47
2023-05-22T17:39:42.763Z,24.92
2023-05-22T17:43:45.706Z,24.38
2023-05-22T17:47:47.339Z,24.00
2023-05-22T17:51:49.186Z,22.97
2023-05-22T17:55:50.853Z,22.35
2023-05-22T17:59:53.877Z,21.89
2023-05-22T18:03:55.484Z,21.58
2023-05-22T18:07:57.147Z,21.22
2023-05-22T18:11:58.668Z,20.92
2023-05-22T18:16:02.184Z,20.72
2023-05-22T18:20:04.342Z,20.37
2023-05-22T18:24:06.274Z,19.92
2023-05-22T18:28:07.832Z,19.73
2023-05-22T18:32:10.730Z,19.45
2023-05-22T18:36:12.404Z,19.09
2023-05-22T18:40:13.979Z,18.87
2023-05-22T18:44:15.532Z,18.68
2023-05-22T18:48:18.648Z,18.31
2023-05-22T18:52:20.337Z,18.08
2023-05-22T18:56:21.960Z,17.88
2023-05-22T19:00:23.499Z,17.68
2023-05-22T19:04:26.430Z,17.48
2023-05-22T19:08:27.963Z,17.24
2023-05-22T19:12:29.492Z,17.08
2023-05-22T19:16:31.121Z,16.86
2023-05-22T19:20:34.021Z,16.74
2023-05-22T19:24:35.751Z,16.58
2023-05-22T19:28:37.323Z,16.39
2023-05-22T19:32:38.864Z,16.25
2023-05-22T19:36:41.762Z,16.12
2023-05-22T19:40:43.274Z,16.03
2023-05-22T19:44:44.973Z,16.02
2023-05-22T19:48:47.014Z,15.81
2023-05-22T19:52:49.998Z,15.58
2023-05-22T19:56:51.520Z,15.50
2023-05-22T20:00:53.130Z,15.35
2023-05-22T20:04:54.654Z,15.19
2023-05-22T20:08:57.648Z,15.03
2023-05-22T20:12:59.160Z,14.92
2023-05-22T20:17:00.694Z,14.87
2023-05-22T20:21:02.257Z,14.80
2023-05-22T20:25:06.554Z,14.74
2023-05-22T20:29:08.081Z,14.71
2023-05-22T20:33:09.634Z,14.61
2023-05-22T20:37:11.434Z,14.52
2023-05-22T20:41:14.308Z,14.48
2023-05-22T20:45:16.192Z,14.35
2023-05-22T20:49:18.043Z,14.29
2023-05-22T20:53:19.614Z,14.20
2023-05-22T20:57:22.586Z,14.13
2023-05-22T21:01:24.812Z,14.10
2023-05-22T21:05:26.410Z,13.98
2023-05-22T21:09:27.958Z,13.98
2023-05-22T21:13:30.862Z,13.94
2023-05-22T21:17:32.422Z,13.93
2023-05-22T21:21:34.022Z,13.86
2023-05-22T21:25:35.563Z,13.79
2023-05-22T21:29:38.455Z,13.81
2023-05-22T21:33:40.046Z,13.76
2023-05-22T21:37:41.589Z,13.59
2023-05-22T21:41:43.178Z,13.44
2023-05-22T21:45:46.056Z,13.42
2023-05-22T21:49:47.671Z,13.44
2023-05-22T21:53:49.198Z,13.34
2023-05-22T21:57:50.741Z,13.38
2023-05-22T22:01:54.028Z,13.39
2023-05-22T22:05:55.707Z,13.46
2023-05-22T22:09:57.989Z,13.42
2023-05-22T22:13:59.517Z,13.36
2023-05-22T22:18:02.550Z,13.49
2023-05-22T22:22:04.112Z,13.26
2023-05-22T22:26:05.747Z,13.11
2023-05-22T22:30:08.806Z,12.99
2023-05-22T22:34:11.581Z,12.93
2023-05-22T22:38:13.123Z,12.94
2023-05-22T22:42:14.803Z,12.85
2023-05-22T22:46:16.584Z,12.83
2023-05-22T22:50:19.592Z,12.82
2023-05-22T22:54:21.156Z,12.83
2023-05-22T22:58:22.940Z,12.81
2023-05-22T23:02:24.503Z,12.84
2023-05-22T23:06:27.637Z,12.77
2023-05-22T23:10:29.039Z,12.65
2023-05-22T23:14:30.607Z,12.57
2023-05-22T23:18:32.159Z,12.59
2023-05-22T23:22:35.175Z,12.63
2023-05-22T23:26:36.744Z,12.59
2023-05-22T23:30:38.272Z,12.54
2023-05-22T23:34:39.888Z,12.54
2023-05-22T23:38:42.765Z,12.67
2023-05-22T23:42:44.260Z,12.55
2023-05-22T23:46:45.817Z,12.48
2023-05-22T23:50:47.364Z,12.44
2023-05-22T23:54:50.262Z,12.37
2023-05-22T23:58:51.785Z,12.42
